Time;durP1;ratioP1;P1;durP2;ratioP2;P2;SDS_P1;SDS_P2;PMS_P1;PMS_P2;Temp;Humidity;BMP_temperature;BMP_pressure;BME280_temperature;BME280_humidity;BME280_pressure;Samples;Min_cycle;Max_cycle;Signal;HPM_P1;HPM_P2
2022/06/19 00:01:15;;;;;;;6.95;0.50;;;15.90;99.90;;;;;;5025008;28;21852;-85
2022/06/19 00:03:54;;;;;;;5.90;0.57;;;15.90;99.90;;;;;;5042673;28;20029;-86
2022/06/19 00:06:20;;;;;;;6.38;0.60;;;15.90;99.90;;;;;;5023335;28;20045;-85
2022/06/19 00:08:48;;;;;;;5.75;0.38;;;15.90;99.90;;;;;;5046886;28;20045;-85
2022/06/19 00:11:16;;;;;;;3.63;0.38;;;15.90;99.90;;;;;;5037684;28;20032;-88
2022/06/19 00:13:42;;;;;;;6.28;0.50;;;15.80;99.90;;;;;;5038499;28;20029;-86
2022/06/19 00:16:08;;;;;;;5.32;0.40;;;15.70;99.90;;;;;;5037635;28;20036;-85
2022/06/19 00:18:35;;;;;;;12.27;0.50;;;15.70;99.90;;;;;;5039036;28;20032;-86
2022/06/19 00:21:01;;;;;;;3.72;0.35;;;15.70;99.90;;;;;;5028978;28;20033;-84
2022/06/19 00:23:27;;;;;;;5.65;0.40;;;15.70;99.90;;;;;;5023226;28;21701;-84
2022/06/19 00:25:53;;;;;;;5.90;0.40;;;15.60;99.90;;;;;;5037557;28;20033;-84
2022/06/19 00:28:18;;;;;;;8.93;0.40;;;15.70;99.90;;;;;;5042220;28;20037;-84
2022/06/19 00:30:44;;;;;;;7.72;0.40;;;15.60;99.90;;;;;;5038533;28;20032;-86
2022/06/19 00:33:09;;;;;;;9.00;0.60;;;15.50;99.90;;;;;;5041633;28;20040;-85
2022/06/19 00:35:35;;;;;;;5.50;0.40;;;15.50;99.90;;;;;;5023424;28;20388;-85
2022/06/19 00:38:01;;;;;;;7.60;0.50;;;15.40;99.90;;;;;;5040721;28;20037;-86
2022/06/19 00:40:29;;;;;;;3.95;0.40;;;15.40;99.90;;;;;;5045979;28;20037;-85
2022/06/19 00:42:55;;;;;;;6.25;0.52;;;15.30;99.90;;;;;;5037348;28;20112;-86
2022/06/19 00:45:51;;;;;;;7.25;0.65;;;15.30;99.90;;;;;;5054236;28;20120;-86
2022/06/19 00:48:36;;;;;;;7.88;0.73;;;15.30;99.90;;;;;;5044216;28;20029;-86
2022/06/19 00:51:05;;;;;;;7.13;0.60;;;15.30;99.90;;;;;;5026389;28;20029;-86
2022/06/19 00:53:42;;;;;;;5.05;0.40;;;15.40;99.90;;;;;;5041533;28;20037;-86
2022/06/19 00:56:16;;;;;;;4.25;0.40;;;15.30;99.90;;;;;;5043033;28;20048;-86
2022/06/19 00:58:45;;;;;;;5.88;0.32;;;15.40;99.90;;;;;;5026178;28;20045;-86
2022/06/19 01:01:17;;;;;;;5.85;0.52;;;15.30;99.90;;;;;;5042007;28;20037;-85
2022/06/19 01:04:11;;;;;;;6.28;0.50;;;15.30;99.90;;;;;;5038444;28;20694;-85
2022/06/19 01:06:37;;;;;;;6.18;0.50;;;15.30;99.90;;;;;;5024188;28;20054;-85
2022/06/19 01:09:04;;;;;;;6.53;0.60;;;15.20;99.90;;;;;;5024136;28;20040;-87
2022/06/19 01:11:34;;;;;;;9.30;0.68;;;15.10;99.90;;;;;;5020700;28;20500;-88
2022/06/19 01:14:00;;;;;;;;;;;15.10;99.90;;;;;;5001569;28;20088;-85
2022/06/19 01:16:26;;;;;;;10.52;0.93;;;15.10;99.90;;;;;;5019989;28;19909;-87
2022/06/19 01:18:52;;;;;;;5.90;0.55;;;15.10;99.90;;;;;;5015310;28;20068;-86
2022/06/19 01:21:38;;;;;;;4.00;0.35;;;15.10;99.90;;;;;;5018477;28;20031;-87
2022/06/19 01:24:34;;;;;;;13.13;0.50;;;15.10;99.90;;;;;;5009113;28;20803;-87
2022/06/19 01:27:02;;;;;;;6.05;0.63;;;15.00;99.90;;;;;;5018098;28;20033;-86
2022/06/19 01:29:32;;;;;;;6.72;0.70;;;15.10;99.90;;;;;;5018976;28;20029;-89
2022/06/19 01:32:02;;;;;;;9.95;0.57;;;15.10;99.90;;;;;;5000742;28;20469;-85
2022/06/19 01:34:35;;;;;;;6.43;0.50;;;15.10;99.90;;;;;;5002298;28;20037;-85
2022/06/19 01:37:20;;;;;;;5.28;0.40;;;15.10;99.90;;;;;;5017591;28;20096;-86
2022/06/19 01:39:51;;;;;;;8.25;0.50;;;15.10;99.90;;;;;;5023920;28;20037;-85
2022/06/19 01:42:17;;;;;;;4.60;0.57;;;15.00;99.90;;;;;;5022132;28;20029;-86
2022/06/19 01:44:44;;;;;;;11.48;0.90;;;15.00;99.90;;;;;;5020538;28;20040;-86
2022/06/19 01:47:11;;;;;;;9.68;0.80;;;14.90;99.90;;;;;;5032857;28;20035;-89
2022/06/19 01:49:41;;;;;;;8.27;0.82;;;14.90;99.90;;;;;;5003633;28;20505;-87
2022/06/19 01:52:07;;;;;;;10.85;0.88;;;14.90;99.90;;;;;;5024463;28;20029;-87
2022/06/19 01:54:44;;;;;;;12.48;0.88;;;14.80;99.90;;;;;;5007033;28;20132;-88
2022/06/19 01:57:11;;;;;;;9.98;0.50;;;14.80;99.90;;;;;;5008656;28;20435;-86
2022/06/19 01:59:40;;;;;;;9.77;0.55;;;14.70;99.90;;;;;;5014725;28;20094;-87
2022/06/19 02:02:09;;;;;;;7.82;0.52;;;14.80;99.90;;;;;;5017078;28;20029;-87
2022/06/19 02:04:35;;;;;;;6.13;0.50;;;14.80;99.90;;;;;;5034462;28;20115;-88
2022/06/19 02:07:05;;;;;;;3.70;0.40;;;14.80;99.90;;;;;;5037116;28;20467;-87
2022/06/19 02:09:31;;;;;;;;;;;14.80;99.90;;;;;;5048482;28;20041;-88
2022/06/19 02:11:57;;;;;;;3.60;0.30;;;14.70;99.90;;;;;;5051041;28;19908;-87
2022/06/19 02:14:23;;;;;;;5.65;0.40;;;14.80;99.90;;;;;;5053389;28;20037;-85
2022/06/19 02:16:50;;;;;;;6.57;0.40;;;14.80;99.90;;;;;;5026812;28;20669;-88
2022/06/19 02:19:18;;;;;;;5.43;0.40;;;14.80;99.90;;;;;;5038147;28;20036;-87
2022/06/19 02:21:52;;;;;;;5.97;0.50;;;14.70;99.90;;;;;;5040858;28;20029;-87
2022/06/19 02:24:20;;;;;;;5.50;0.40;;;14.80;99.90;;;;;;5054640;28;20075;-88
2022/06/19 02:26:48;;;;;;;7.32;0.40;;;14.70;99.90;;;;;;5036007;28;20033;-87
2022/06/19 02:29:16;;;;;;;7.88;0.52;;;14.70;99.90;;;;;;5054300;28;20040;-87
2022/06/19 02:31:45;;;;;;;5.03;0.40;;;14.70;99.90;;;;;;5052819;28;20052;-87
2022/06/19 02:34:27;;;;;;;7.68;0.50;;;14.70;99.90;;;;;;5040276;28;20036;-89
2022/06/19 02:36:57;;;;;;;4.80;0.80;;;14.60;99.90;;;;;;5035998;28;20073;-88
2022/06/19 02:39:38;;;;;;;6.93;0.47;;;14.60;99.90;;;;;;5020564;28;20044;-87
2022/06/19 02:42:19;;;;;;;4.75;0.32;;;14.50;99.90;;;;;;5050199;28;20021;-86
2022/06/19 02:44:48;;;;;;;9.85;0.40;;;14.50;99.90;;;;;;5035837;28;20036;-88
2022/06/19 02:47:14;;;;;;;6.70;0.50;;;14.50;99.90;;;;;;5020434;28;20056;-88
2022/06/19 02:49:41;;;;;;;7.63;0.45;;;14.50;99.90;;;;;;5023062;28;20079;-89
2022/06/19 02:52:09;;;;;;;8.63;0.40;;;14.50;99.90;;;;;;5034782;28;20096;-89
2022/06/19 02:54:35;;;;;;;7.95;0.60;;;14.50;99.90;;;;;;5038250;28;20724;-86
2022/06/19 02:57:01;;;;;;;5.20;0.50;;;14.40;99.90;;;;;;5037693;28;20043;-87
2022/06/19 02:59:26;;;;;;;5.40;0.40;;;14.40;99.90;;;;;;5027192;28;20463;-86
2022/06/19 03:01:52;;;;;;;7.10;0.43;;;14.40;99.90;;;;;;5053923;28;20025;-88
2022/06/19 03:04:23;;;;;;;9.57;0.63;;;14.40;99.90;;;;;;5019691;28;20036;-86
2022/06/19 03:06:49;;;;;;;11.63;0.50;;;14.40;99.90;;;;;;5052955;28;20036;-88
2022/06/19 03:09:15;;;;;;;10.20;0.50;;;14.40;99.90;;;;;;5051914;28;20082;-88
2022/06/19 03:11:41;;;;;;;7.88;0.73;;;14.40;99.90;;;;;;5046349;28;20687;-88
2022/06/19 03:14:07;;;;;;;6.88;0.50;;;14.40;99.90;;;;;;5054783;28;20455;-87
2022/06/19 03:16:33;;;;;;;4.60;0.73;;;14.30;99.90;;;;;;5056280;28;20064;-87
2022/06/19 03:18:59;;;;;;;7.45;0.50;;;14.30;99.90;;;;;;5037038;28;20048;-87
2022/06/19 03:21:26;;;;;;;4.93;0.30;;;14.30;99.90;;;;;;5050083;28;20025;-87
2022/06/19 03:23:51;;;;;;;6.53;0.40;;;14.40;99.90;;;;;;5025361;28;20131;-90
2022/06/19 03:26:17;;;;;;;5.63;0.30;;;14.40;99.90;;;;;;5039629;28;20032;-87
2022/06/19 03:28:42;;;;;;;5.45;0.50;;;14.40;99.90;;;;;;5025356;28;20025;-85
2022/06/19 03:31:15;;;;;;;6.15;0.65;;;14.40;99.90;;;;;;5019556;28;20048;-87
2022/06/19 03:33:41;;;;;;;10.07;0.50;;;14.50;99.90;;;;;;5035301;28;20025;-87
2022/06/19 03:36:07;;;;;;;6.25;0.30;;;14.40;99.90;;;;;;5050159;28;20483;-88
2022/06/19 03:38:32;;;;;;;5.90;0.30;;;14.40;99.90;;;;;;5049555;28;20039;-87
2022/06/19 03:40:58;;;;;;;9.10;0.43;;;14.40;99.90;;;;;;5024695;28;20037;-86
2022/06/19 03:43:24;;;;;;;5.15;0.70;;;14.40;99.90;;;;;;5052127;28;20057;-85
2022/06/19 03:45:49;;;;;;;9.82;0.40;;;14.40;99.90;;;;;;5016746;28;20052;-86
2022/06/19 03:48:15;;;;;;;4.95;0.20;;;14.30;99.90;;;;;;5035443;28;22009;-88
2022/06/19 03:50:41;;;;;;;6.13;0.30;;;14.30;99.90;;;;;;5039203;28;20033;-88
2022/06/19 03:53:08;;;;;;;6.55;0.40;;;14.30;99.90;;;;;;5032350;28;20056;-87
2022/06/19 03:55:34;;;;;;;3.78;0.25;;;14.20;99.90;;;;;;5036742;28;20468;-87
2022/06/19 03:58:01;;;;;;;5.97;0.30;;;14.20;99.90;;;;;;5039748;28;20056;-86
2022/06/19 04:00:27;;;;;;;5.75;0.43;;;14.20;99.90;;;;;;5036706;28;20032;-86
2022/06/19 04:02:52;;;;;;;7.05;0.40;;;14.20;99.90;;;;;;5020834;28;20036;-87
2022/06/19 04:05:19;;;;;;;6.38;0.28;;;14.20;99.90;;;;;;5025323;28;20057;-86
2022/06/19 04:07:47;;;;;;;5.80;0.35;;;14.20;99.90;;;;;;5049358;28;20108;-90
2022/06/19 04:10:16;;;;;;;4.90;0.35;;;14.20;99.90;;;;;;5042538;28;20432;-91
2022/06/19 04:12:42;;;;;;;3.40;0.30;;;14.30;99.90;;;;;;5035320;28;20087;-86
2022/06/19 04:15:10;;;;;;;6.10;0.40;;;14.30;99.90;;;;;;5033959;28;20068;-87
2022/06/19 04:17:36;;;;;;;5.85;0.93;;;14.30;99.90;;;;;;5018877;28;20028;-88
2022/06/19 04:20:03;;;;;;;6.00;0.43;;;14.40;99.90;;;;;;5040296;28;20040;-89
2022/06/19 04:22:29;;;;;;;9.52;0.65;;;14.40;99.90;;;;;;5034474;28;21861;-89
2022/06/19 04:24:55;;;;;;;6.18;0.30;;;14.40;99.90;;;;;;5051807;28;20044;-88
2022/06/19 04:27:20;;;;;;;5.88;0.40;;;14.40;99.90;;;;;;5024666;28;20025;-87
2022/06/19 04:29:46;;;;;;;5.25;0.30;;;14.60;99.90;;;;;;5017277;28;20489;-89
2022/06/19 04:32:12;;;;;;;5.05;0.40;;;14.50;99.90;;;;;;5032579;28;20044;-88
2022/06/19 04:34:38;;;;;;;7.57;0.45;;;14.50;99.90;;;;;;5050664;28;20033;-88
2022/06/19 04:37:04;;;;;;;11.07;0.77;;;14.60;99.90;;;;;;5018902;28;20096;-87
2022/06/19 04:39:29;;;;;;;6.38;0.55;;;14.70;99.90;;;;;;5018836;28;20037;-87
2022/06/19 04:41:55;;;;;;;6.32;0.50;;;14.70;99.90;;;;;;5050171;28;20052;-86
2022/06/19 04:44:21;;;;;;;6.90;0.68;;;14.80;99.90;;;;;;5035605;28;20154;-88
2022/06/19 04:46:47;;;;;;;2.70;0.30;;;15.00;99.90;;;;;;5051263;28;20036;-87
2022/06/19 04:49:14;;;;;;;5.07;0.40;;;15.00;99.90;;;;;;5038546;28;20404;-87
2022/06/19 04:51:40;;;;;;;5.45;0.40;;;14.90;99.90;;;;;;5017683;28;20098;-88
2022/06/19 04:54:07;;;;;;;5.35;0.40;;;14.90;99.90;;;;;;5022868;28;20112;-87
2022/06/19 04:56:33;;;;;;;10.27;0.82;;;15.10;99.90;;;;;;5025449;28;20039;-89
2022/06/19 04:58:59;;;;;;;2.88;0.22;;;15.20;99.90;;;;;;5053856;28;20676;-87
2022/06/19 05:01:27;;;;;;;5.15;0.38;;;15.30;99.90;;;;;;5043847;28;20393;-88
2022/06/19 05:03:57;;;;;;;5.78;0.40;;;15.40;99.90;;;;;;5054435;28;20111;-88
2022/06/19 05:06:23;;;;;;;4.38;0.25;;;15.40;99.90;;;;;;5055395;28;20530;-87
2022/06/19 05:08:49;;;;;;;5.22;0.50;;;15.60;99.90;;;;;;5035908;28;20033;-86
2022/06/19 05:11:16;;;;;;;4.97;0.68;;;15.60;99.90;;;;;;5024244;28;20125;-84
2022/06/19 05:13:42;;;;;;;5.95;0.30;;;15.50;99.90;;;;;;5025367;28;20388;-89
2022/06/19 05:16:17;;;;;;;4.53;0.45;;;15.60;99.90;;;;;;5041272;28;20035;-87
2022/06/19 05:18:43;;;;;;;5.38;0.55;;;15.70;99.90;;;;;;5048180;28;20163;-87
2022/06/19 05:21:10;;;;;;;4.07;0.30;;;15.80;99.90;;;;;;5039629;28;20032;-86
2022/06/19 05:23:39;;;;;;;4.97;0.25;;;15.80;99.90;;;;;;5053847;28;20503;-86
2022/06/19 05:26:20;;;;;;;3.42;0.30;;;15.90;99.90;;;;;;5025301;28;20021;-89
2022/06/19 05:28:48;;;;;;;5.15;0.20;;;16.00;99.90;;;;;;5041852;28;20031;-85
2022/06/19 05:31:14;;;;;;;5.97;0.40;;;16.10;99.90;;;;;;5061267;28;20554;-86
2022/06/19 05:33:40;;;;;;;6.97;0.28;;;16.00;99.90;;;;;;5045563;28;20033;-87
2022/06/19 05:36:06;;;;;;;1.75;0.20;;;16.10;99.90;;;;;;5030426;28;20032;-87
2022/06/19 05:38:32;;;;;;;3.33;0.30;;;16.20;99.90;;;;;;5040550;28;20032;-87
2022/06/19 05:40:59;;;;;;;4.72;0.20;;;16.30;99.90;;;;;;5044814;28;20032;-89
2022/06/19 05:43:28;;;;;;;3.22;0.40;;;16.30;99.90;;;;;;5055081;28;20102;-86
2022/06/19 05:45:59;;;;;;;2.72;0.20;;;16.40;99.90;;;;;;5021881;28;20033;-86
2022/06/19 05:48:25;;;;;;;3.75;0.20;;;16.30;99.90;;;;;;5036350;28;20063;-87
2022/06/19 05:50:59;;;;;;;3.72;0.30;;;16.50;99.90;;;;;;5051603;28;20033;-86
2022/06/19 05:53:30;;;;;;;5.32;0.28;;;16.80;99.90;;;;;;5054548;28;20140;-86
2022/06/19 05:55:55;;;;;;;5.82;0.30;;;17.10;99.90;;;;;;5054364;28;20538;-85
2022/06/19 05:58:21;;;;;;;3.35;0.38;;;17.10;99.90;;;;;;5041950;28;20040;-85
2022/06/19 06:00:47;;;;;;;3.80;0.20;;;17.20;99.90;;;;;;5050283;28;20036;-86
2022/06/19 06:03:17;;;;;;;4.35;0.30;;;17.30;99.90;;;;;;5043309;28;20055;-87
2022/06/19 06:05:44;;;;;;;2.92;0.25;;;17.50;99.90;;;;;;5055291;28;20075;-86
2022/06/19 06:08:11;;;;;;;4.15;0.30;;;17.30;99.90;;;;;;5053191;28;20044;-86
2022/06/19 06:10:36;;;;;;;2.13;0.20;;;16.90;99.90;;;;;;5041124;28;20026;-86
2022/06/19 06:13:02;;;;;;;5.47;0.50;;;16.90;99.90;;;;;;5040555;28;20033;-85
2022/06/19 06:15:28;;;;;;;6.93;0.40;;;17.10;99.90;;;;;;5024657;28;20574;-85
2022/06/19 06:17:54;;;;;;;3.53;0.30;;;17.30;99.90;;;;;;5051863;28;20607;-85
2022/06/19 06:20:20;;;;;;;3.85;0.50;;;17.50;99.90;;;;;;5039619;28;20036;-86
2022/06/19 06:22:45;;;;;;;7.75;0.50;;;17.50;99.90;;;;;;5054687;28;20044;-86
2022/06/19 06:25:11;;;;;;;6.70;0.40;;;17.30;99.90;;;;;;5051082;28;20085;-85
2022/06/19 06:27:38;;;;;;;4.00;0.30;;;17.70;99.90;;;;;;5019028;28;20048;-86
2022/06/19 06:30:04;;;;;;;5.25;0.40;;;17.90;99.90;;;;;;5038421;28;20036;-86
2022/06/19 06:32:30;;;;;;;5.20;0.20;;;18.30;99.90;;;;;;5035533;28;20036;-86
2022/06/19 06:34:55;;;;;;;2.88;0.20;;;18.50;99.90;;;;;;5036746;28;20029;-86
2022/06/19 06:37:21;;;;;;;3.70;0.30;;;18.30;99.90;;;;;;5051728;28;20121;-88
2022/06/19 06:39:48;;;;;;;5.10;0.30;;;17.80;99.90;;;;;;5035303;28;20381;-87
2022/06/19 06:42:15;;;;;;;2.83;0.30;;;17.50;99.90;;;;;;5040816;28;20249;-86
2022/06/19 06:44:40;;;;;;;4.30;0.65;;;17.40;99.90;;;;;;5051423;28;20115;-86
2022/06/19 06:47:06;;;;;;;5.75;0.40;;;17.00;99.90;;;;;;5041866;28;20146;-85
2022/06/19 06:49:32;;;;;;;2.92;0.30;;;16.90;99.90;;;;;;5037369;28;20497;-85
2022/06/19 06:51:58;;;;;;;3.65;0.38;;;16.90;99.90;;;;;;5039202;28;20031;-85
2022/06/19 06:54:23;;;;;;;2.75;0.25;;;16.90;99.90;;;;;;5049893;28;20063;-84
2022/06/19 06:56:49;;;;;;;3.63;0.20;;;17.10;99.90;;;;;;5044429;28;20109;-85
2022/06/19 06:59:15;;;;;;;2.58;0.20;;;17.20;99.90;;;;;;5040434;28;20119;-85
2022/06/19 07:01:40;;;;;;;3.10;0.20;;;17.70;99.90;;;;;;5033141;28;20028;-87
2022/06/19 07:04:06;;;;;;;2.75;0.28;;;17.70;99.90;;;;;;5035106;28;20058;-86
2022/06/19 07:06:32;;;;;;;3.22;0.20;;;17.40;99.90;;;;;;5047364;28;20567;-85
2022/06/19 07:08:59;;;;;;;1.65;0.10;;;17.20;99.90;;;;;;5037303;28;20200;-87
2022/06/19 07:11:35;;;;;;;3.33;0.20;;;17.10;99.90;;;;;;5035922;28;20068;-86
2022/06/19 07:14:01;;;;;;;3.30;0.20;;;16.90;99.90;;;;;;5051353;28;20198;-86
2022/06/19 07:16:27;;;;;;;3.38;0.20;;;16.60;99.90;;;;;;5016827;28;20116;-85
2022/06/19 07:18:52;;;;;;;2.85;0.20;;;16.60;99.90;;;;;;5035510;28;20075;-86
2022/06/19 07:21:18;;;;;;;4.93;0.30;;;16.60;99.90;;;;;;5050565;28;20033;-86
2022/06/19 07:23:44;;;;;;;1.95;0.20;;;16.50;99.90;;;;;;5034758;28;20039;-86
2022/06/19 07:26:15;;;;;;;1.60;0.17;;;16.50;99.90;;;;;;5050880;28;20024;-85
2022/06/19 07:28:41;;;;;;;3.03;0.20;;;16.40;99.90;;;;;;5019983;28;20515;-86
2022/06/19 07:31:08;;;;;;;2.13;0.20;;;16.00;99.90;;;;;;5033621;28;20106;-87
2022/06/19 07:33:35;;;;;;;2.70;0.20;;;15.90;99.90;;;;;;5050737;28;20079;-88
2022/06/19 07:36:02;;;;;;;4.40;0.20;;;15.80;99.90;;;;;;5051357;28;20043;-87
2022/06/19 07:38:27;;;;;;;2.50;0.30;;;15.70;99.90;;;;;;5036358;28;20119;-87
2022/06/19 07:40:53;;;;;;;4.75;0.20;;;15.70;99.90;;;;;;5020533;28;20123;-87
2022/06/19 07:43:19;;;;;;;3.05;0.30;;;15.70;99.90;;;;;;5052750;28;20552;-87
2022/06/19 07:45:44;;;;;;;2.17;0.20;;;15.70;99.90;;;;;;5039532;28;20107;-86
2022/06/19 07:50:55;;;;;;;4.45;0.52;;;15.80;99.90;;;;;;5053591;28;20044;-87
2022/06/19 07:53:21;;;;;;;3.58;0.20;;;15.70;99.90;;;;;;5026283;28;20035;-86
2022/06/19 07:55:47;;;;;;;9.63;0.77;;;15.60;99.90;;;;;;5021658;28;20036;-88
2022/06/19 07:58:13;;;;;;;6.53;0.40;;;15.40;99.90;;;;;;5020686;28;20841;-86
2022/06/19 08:00:39;;;;;;;9.70;1.35;;;15.20;99.90;;;;;;5041299;28;20047;-87
2022/06/19 08:03:06;;;;;;;7.10;0.52;;;15.30;99.90;;;;;;5033904;28;20041;-88
2022/06/19 08:05:34;;;;;;;7.18;0.40;;;15.20;99.90;;;;;;5018285;28;20378;-88
2022/06/19 08:08:03;;;;;;;6.95;0.30;;;15.00;99.90;;;;;;5033928;28;20036;-86
2022/06/19 08:10:30;;;;;;;6.53;0.30;;;14.90;99.90;;;;;;5051818;28;20036;-87
2022/06/19 08:12:56;;;;;;;7.07;0.43;;;14.80;99.90;;;;;;5036016;28;20039;-89
2022/06/19 08:15:22;;;;;;;6.82;0.40;;;14.80;99.90;;;;;;5024187;28;20433;-89
2022/06/19 08:17:48;;;;;;;5.43;0.50;;;14.60;99.90;;;;;;5025686;28;20079;-88
2022/06/19 08:20:16;;;;;;;6.35;0.93;;;14.50;99.90;;;;;;5040514;28;20032;-88
2022/06/19 08:22:42;;;;;;;5.25;0.40;;;14.50;99.90;;;;;;5046569;28;20044;-88
2022/06/19 08:25:09;;;;;;;5.45;0.30;;;14.40;99.90;;;;;;5040255;28;20048;-86
2022/06/19 08:27:41;;;;;;;6.00;0.50;;;14.30;99.90;;;;;;5044909;28;20449;-88
2022/06/19 08:30:11;;;;;;;6.65;0.50;;;14.30;99.90;;;;;;5042604;28;20057;-88
2022/06/19 08:32:37;;;;;;;6.57;0.50;;;14.20;99.90;;;;;;5041847;28;20408;-87
2022/06/19 08:35:03;;;;;;;6.63;0.50;;;14.10;99.90;;;;;;5041571;28;20037;-88
2022/06/19 08:37:29;;;;;;;7.43;0.50;;;14.10;99.90;;;;;;5039539;28;20145;-88
2022/06/19 08:39:54;;;;;;;6.90;0.57;;;14.10;99.90;;;;;;5042902;28;20063;-88
2022/06/19 08:42:40;;;;;;;8.98;0.57;;;14.30;99.90;;;;;;5043184;28;20028;-89
2022/06/19 08:45:50;;;;;;;9.32;0.70;;;14.30;99.90;;;;;;5055376;28;20025;-87
2022/06/19 08:48:39;;;;;;;8.30;0.52;;;14.10;99.90;;;;;;4962764;28;20037;-88
2022/06/19 08:51:38;;;;;;;5.85;0.40;;;14.30;99.90;;;;;;4978024;28;20030;-88
2022/06/19 08:54:25;;;;;;;10.98;0.82;;;14.30;99.90;;;;;;4871687;29;20068;-88
2022/06/19 08:57:03;;;;;;;4.25;0.30;;;14.30;99.90;;;;;;4889211;29;20039;-88
2022/06/19 09:00:07;;;;;;;3.08;0.20;;;14.50;99.90;;;;;;4912582;29;20516;-83
2022/06/19 09:02:43;;;;;;;5.45;0.50;;;14.30;99.90;;;;;;4911141;29;20540;-84
2022/06/19 09:05:47;;;;;;;5.03;0.40;;;14.30;99.90;;;;;;4896547;29;20126;-84
2022/06/19 09:08:42;;;;;;;6.47;0.40;;;14.30;99.90;;;;;;4897612;29;20075;-87
2022/06/19 09:11:26;;;;;;;6.60;0.45;;;14.00;99.90;;;;;;4912027;29;20415;-87
2022/06/19 09:14:33;;;;;;;7.97;0.60;;;13.90;99.90;;;;;;4899251;29;20167;-86
2022/06/19 09:17:24;;;;;;;7.55;0.70;;;13.80;99.90;;;;;;4899638;29;20051;-87
2022/06/19 09:20:02;;;;;;;5.70;0.40;;;14.00;99.90;;;;;;4870969;29;20040;-86
2022/06/19 09:22:47;;;;;;;6.85;0.40;;;13.90;99.90;;;;;;4885699;29;20118;-84
2022/06/19 09:25:37;;;;;;;11.25;0.70;;;14.10;99.90;;;;;;4947366;28;20042;-85
2022/06/19 09:28:19;;;;;;;5.45;0.40;;;14.00;99.90;;;;;;4949314;28;20137;-85
2022/06/19 09:31:03;;;;;;;5.80;0.40;;;14.00;99.90;;;;;;4984004;28;20033;-85
2022/06/19 09:34:05;;;;;;;8.18;1.02;;;14.00;99.90;;;;;;5024218;28;20032;-86
2022/06/19 09:36:54;;;;;;;5.50;0.60;;;13.90;99.90;;;;;;5040168;28;20028;-87
2022/06/19 09:39:38;;;;;;;8.02;0.80;;;14.30;99.90;;;;;;5022767;28;20369;-88
2022/06/19 09:42:15;;;;;;;4.13;0.40;;;14.50;99.90;;;;;;5026274;28;20048;-88
2022/06/19 09:45:12;;;;;;;6.57;0.40;;;14.60;99.90;;;;;;5027341;28;20525;-87
2022/06/19 09:48:11;;;;;;;4.15;0.28;;;14.90;99.90;;;;;;5028728;28;20052;-88
2022/06/19 09:50:55;;;;;;;3.28;0.40;;;15.20;99.90;;;;;;5041797;28;20032;-88
2022/06/19 09:53:38;;;;;;;3.05;0.30;;;15.60;99.90;;;;;;5056059;28;20032;-89
2022/06/19 09:56:18;;;;;;;4.32;0.40;;;15.80;99.90;;;;;;5020632;28;20020;-88
2022/06/19 09:58:55;;;;;;;5.95;0.30;;;16.40;99.90;;;;;;5045157;28;20054;-88
2022/06/19 10:01:24;;;;;;;5.07;0.30;;;16.20;99.90;;;;;;5026196;28;20596;-88
2022/06/19 10:04:04;;;;;;;6.40;0.40;;;16.10;99.90;;;;;;5042419;28;20028;-85
2022/06/19 10:06:36;;;;;;;;;;;16.60;99.90;;;;;;5033281;28;20064;-86
2022/06/19 10:09:19;;;;;;;2.33;0.30;;;16.90;99.90;;;;;;5055187;28;19912;-84
2022/06/19 10:11:46;;;;;;;5.28;0.20;;;16.80;99.90;;;;;;5036736;28;20366;-85
2022/06/19 10:14:27;;;;;;;5.30;0.30;;;17.30;99.90;;;;;;5038492;28;20045;-87
2022/06/19 10:17:11;;;;;;;2.33;0.30;;;16.50;99.90;;;;;;5038695;28;20119;-83
2022/06/19 10:19:46;;;;;;;2.35;0.20;;;17.20;99.90;;;;;;5040315;28;20040;-84
2022/06/19 10:22:25;;;;;;;5.45;0.30;;;17.80;99.90;;;;;;5038546;28;20067;-84
2022/06/19 10:25:00;;;;;;;5.43;0.30;;;17.50;99.90;;;;;;5021394;28;20036;-84
2022/06/19 10:27:25;;;;;;;3.10;0.20;;;16.90;99.90;;;;;;5035800;28;20033;-84
2022/06/19 10:30:06;;;;;;;2.45;0.20;;;17.60;99.90;;;;;;5032679;28;20064;-85
2022/06/19 10:32:49;;;;;;;3.85;0.30;;;18.10;99.90;;;;;;5038701;28;20064;-85
2022/06/19 10:35:49;;;;;;;2.03;0.20;;;18.20;99.90;;;;;;5023152;28;20036;-84
2022/06/19 10:38:36;;;;;;;3.67;0.20;;;19.10;99.90;;;;;;5037437;28;20029;-85
2022/06/19 10:44:32;;;;;;;2.65;0.20;;;19.10;99.90;;;;;;5050492;28;20080;-83
2022/06/19 10:47:26;;;;;;;2.60;0.30;;;19.60;99.90;;;;;;5049831;28;20082;-85
2022/06/19 10:50:36;;;;;;;2.20;0.25;;;19.50;99.90;;;;;;5034185;28;20052;-85
2022/06/19 10:53:29;;;;;;;1.60;0.20;;;20.20;99.90;;;;;;5016013;28;20029;-84
2022/06/19 10:56:21;;;;;;;2.08;0.20;;;19.60;99.90;;;;;;5033537;28;20036;-86
2022/06/19 10:58:47;;;;;;;2.15;0.15;;;19.60;99.90;;;;;;5016054;28;20045;-84
2022/06/19 11:04:06;;;;;;;1.95;0.17;;;19.70;99.90;;;;;;5039145;28;20039;-86
2022/06/19 11:04:10;;;;;;;2.30;0.30;;;19.00;99.90;;;;;;5050319;28;20062;-86
2022/06/19 11:07:05;;;;;;;1.95;0.20;;;18.60;99.90;;;;;;5049731;28;20080;-84
2022/06/19 11:09:33;;;;;;;1.38;0.20;;;18.40;99.90;;;;;;5040980;28;20424;-84
2022/06/19 11:12:06;;;;;;;1.17;0.20;;;18.80;99.90;;;;;;5036242;28;20036;-83
2022/06/19 11:14:54;;;;;;;1.85;0.20;;;19.90;99.90;;;;;;5032330;28;20055;-85
2022/06/19 11:17:36;;;;;;;2.78;0.20;;;19.30;99.90;;;;;;5022283;28;20040;-85
2022/06/19 11:20:21;;;;;;;1.77;0.20;;;18.90;99.90;;;;;;5039170;28;20056;-81
2022/06/19 11:22:49;;;;;;;1.27;0.10;;;19.90;99.90;;;;;;5034686;28;20058;-87
2022/06/19 11:25:28;;;;;;;4.38;0.22;;;20.20;99.90;;;;;;5039487;28;20036;-88
2022/06/19 11:28:50;;;;;;;2.10;0.23;;;19.30;99.90;;;;;;5001948;28;20125;-84
2022/06/19 11:31:28;;;;;;;2.25;0.20;;;19.30;99.90;;;;;;4941150;28;20507;-82
2022/06/19 11:37:13;;;;;;;3.05;0.22;;;19.00;99.90;;;;;;4975553;28;20043;-85
2022/06/19 11:39:46;;;;;;;2.35;0.20;;;18.50;99.90;;;;;;4973723;28;20046;-84
2022/06/19 11:42:34;;;;;;;3.30;0.20;;;19.00;99.90;;;;;;4956960;28;20438;-85
2022/06/19 11:45:15;;;;;;;3.70;0.20;;;18.70;99.90;;;;;;4973249;28;20054;-84
2022/06/19 11:48:07;;;;;;;2.50;0.30;;;19.10;99.90;;;;;;4975585;28;20237;-83
2022/06/19 11:50:32;;;;;;;2.75;0.20;;;19.40;99.90;;;;;;4976691;28;20042;-85
2022/06/19 11:53:06;;;;;;;2.90;0.20;;;19.40;99.90;;;;;;4959894;28;20088;-84
2022/06/19 11:55:41;;;;;;;1.90;0.30;;;19.20;99.90;;;;;;4963391;28;20120;-84
2022/06/19 11:58:38;;;;;;;2.13;0.20;;;19.20;99.90;;;;;;4978171;28;20062;-84
2022/06/19 12:01:17;;;;;;;4.78;0.30;;;19.50;99.90;;;;;;4959609;28;20038;-84
2022/06/19 12:03:59;;;;;;;4.95;0.30;;;20.30;99.90;;;;;;4962779;28;20558;-85
2022/06/19 12:06:51;;;;;;;3.42;0.30;;;20.20;99.90;;;;;;5041263;28;20190;-86
2022/06/19 12:09:23;;;;;;;4.38;0.55;;;20.90;99.90;;;;;;5052097;28;20044;-87
2022/06/19 12:12:07;;;;;;;6.47;0.60;;;20.30;99.90;;;;;;5037661;28;20037;-87
2022/06/19 12:14:38;;;;;;;5.32;0.63;;;19.40;99.90;;;;;;5015459;28;20431;-86
2022/06/19 12:17:32;;;;;;;7.03;0.45;;;19.10;99.90;;;;;;5037956;28;20107;-86
2022/06/19 12:20:07;;;;;;;5.13;0.43;;;19.30;99.90;;;;;;5017164;28;20036;-86
2022/06/19 12:22:39;;;;;;;4.13;0.40;;;19.60;99.90;;;;;;5040740;28;20051;-87
2022/06/19 12:25:17;;;;;;;3.72;0.40;;;19.80;99.90;;;;;;5042440;28;20037;-85
2022/06/19 12:27:51;;;;;;;5.10;0.40;;;19.90;99.90;;;;;;5051640;28;20021;-87
2022/06/19 12:30:28;;;;;;;5.35;0.50;;;19.50;99.90;;;;;;5018792;28;20032;-86
2022/06/19 12:32:56;;;;;;;5.82;0.70;;;18.70;99.90;;;;;;5034771;28;20468;-87
2022/06/19 12:35:34;;;;;;;4.10;0.50;;;18.50;99.90;;;;;;5034698;28;20536;-87
2022/06/19 12:38:01;;;;;;;5.03;0.47;;;18.50;99.90;;;;;;5019717;28;20107;-88
2022/06/19 12:40:37;;;;;;;4.63;0.50;;;18.40;99.90;;;;;;5034809;28;20037;-89
2022/06/19 12:43:30;;;;;;;3.05;0.40;;;18.60;99.90;;;;;;5037971;28;20460;-88
2022/06/19 12:45:57;;;;;;;5.05;0.40;;;18.50;99.90;;;;;;5036964;28;20392;-87
2022/06/19 12:49:15;;;;;;;2.97;0.45;;;18.40;99.90;;;;;;5037180;28;20056;-87
2022/06/19 12:52:16;;;;;;;2.95;0.45;;;18.00;99.90;;;;;;4961461;28;20507;-89
2022/06/19 12:55:03;;;;;;;4.50;0.43;;;17.80;99.90;;;;;;4942729;28;20471;-89
2022/06/19 12:57:45;;;;;;;3.65;0.40;;;17.90;99.90;;;;;;4946008;28;20282;-88
2022/06/19 13:00:55;;;;;;;3.90;0.50;;;17.60;99.90;;;;;;4931232;28;20107;-88
2022/06/19 13:03:54;;;;;;;7.35;0.60;;;17.50;99.90;;;;;;4960439;28;20047;-88
2022/06/19 13:06:49;;;;;;;6.50;0.68;;;17.30;99.90;;;;;;4946748;28;20061;-89
2022/06/19 13:09:15;;;;;;;8.10;0.55;;;17.10;99.90;;;;;;4932150;28;20035;-89
2022/06/19 13:11:52;;;;;;;7.22;0.73;;;17.10;99.90;;;;;;4949691;28;20192;-91
2022/06/19 13:14:29;;;;;;;7.72;0.98;;;17.30;99.90;;;;;;4945669;28;20073;-87
2022/06/19 13:17:10;;;;;;;4.07;0.50;;;17.30;99.90;;;;;;4949244;28;20039;-90
2022/06/19 13:19:51;;;;;;;5.28;0.50;;;17.50;99.90;;;;;;4961203;28;20042;-89
2022/06/19 13:22:38;;;;;;;3.58;0.55;;;17.60;99.90;;;;;;4964555;28;20039;-89
2022/06/19 13:25:19;;;;;;;2.67;0.40;;;17.50;99.90;;;;;;4948363;28;20034;-89
2022/06/19 13:28:28;;;;;;;1.35;0.40;;;17.70;99.90;;;;;;4977680;28;20280;-88